Flight Track Log - Related Links

Times and Time Zones

All times are in EDT time to prevent confusion due to time zone crossing. See the ASQ6115 flight status page for this flight to view local times or setup timezone preferences in your user account.

Time Position Orientation Groundspeed Altitude Reporting Facility
EDT Latitude Longitude Course Direction KTS MPH feet Rate Location/Type
Sun 09:55:02 26.1494 -98.2114 130° Southeast 165 190 1,700  Level Houston Center
Sun 09:55:41 26.1647 -98.1756 65° Northeast 205 236 2,900 1,444 Climbing Houston Center
Sun 09:55:56 26.1844 -98.1650 26° Northeast 253 291 3,000 1,967 Climbing Houston Center
Sun 09:56:42 26.2425 -98.1414 20° North 278 320 4,900 2,459 Climbing Houston Center
Sun 09:56:57 26.2592 -98.1344 20° North 301 346 5,500 2,656 Climbing Houston Center
Sun 09:57:00 26.3661 -98.1369 20° North  Level FlightAware
Sun 09:57:43 26.3167 -98.1100 21° North 285 328 7,600  Level Houston Center
Sun 09:58:00 26.4339 -98.1081 24° Northeast  Level FlightAware
Sun 09:58:45 26.3911 -98.0797 20° North 283 326 9,600  Level Houston Center
Sun 09:59:00 26.5000 -98.0750 24° Northeast  Level FlightAware
Sun 09:59:46 26.4700 -98.0472 20° North 298 343 10,800  Level Houston Center
Sun 10:00:48 26.5675 -98.0067 20° North 339 390 11,700 1,073 Climbing Houston Center
Sun 10:01:49 26.6628 -97.9669 20° North 359 413 13,000 1,220 Climbing Houston Center
Sun 10:02:51 26.7572 -97.9272 21° North 361 415 14,200 1,220 Climbing Houston Center
Sun 10:03:52 26.8614 -97.8842 20° North 368 423 15,500 1,220 Climbing Houston Center
Sun 10:04:54 26.9592 -97.8433 20° North 372 428 16,700 1,171 Climbing Houston Center
Sun 10:05:55 27.0575 -97.8025 20° North 374 430 17,900 1,180 Climbing Houston Center
Sun 10:06:56 27.1544 -97.7492 26° Northeast 377 434 19,100 1,171 Climbing Houston Center
Sun 10:07:58 27.2436 -97.6903 30° Northeast 375 432 20,300 1,171 Climbing Houston Center
Sun 10:08:59 27.3353 -97.6311 30° Northeast 377 434 21,500 1,171 Climbing Houston Center
Sun 10:10:01 27.4283 -97.5714 30° Northeast 384 442 22,700 1,171 Climbing Houston Center
Sun 10:11:02 27.5192 -97.5122 30° Northeast 380 437 23,900 1,171 Climbing Houston Center
Sun 10:12:04 27.6111 -97.4531 30° Northeast 380 437 25,100 1,122 Climbing Houston Center
Sun 10:13:05 27.7017 -97.3936 30° Northeast 378 435 26,200 927 Climbing Houston Center
Sun 10:14:07 27.8100 -97.3222 30° Northeast 376 433 27,000 390 Climbing Houston Center
Sun 10:15:08 27.9078 -97.2583 30° Northeast 395 455 27,000  Level Houston Center
Sun 10:16:10 28.0144 -97.1892 30° Northeast 422 486 27,000  Level Houston Center
Sun 10:17:11 28.1206 -97.1183 30° Northeast 439 505 27,000  Level Houston Center
Sun 10:18:13 28.2292 -97.0478 30° Northeast 449 517 27,000  Level Houston Center
Sun 10:19:14 28.3375 -96.9775 30° Northeast 449 517 27,000  Level Houston Center
Sun 10:20:16 28.4467 -96.9033 31° Northeast 456 525 27,000  Level Houston Center
Sun 10:21:17 28.5564 -96.8306 30° Northeast 458 527 27,000  Level Houston Center
Sun 10:22:19 28.6661 -96.7583 30° Northeast 458 527 27,000 -49 Level Houston Center
Sun 10:23:20 28.7983 -96.6700 30° Northeast 459 528 26,900 -927 Descending Houston Center
Sun 10:24:22 28.9111 -96.5953 30° Northeast 470 541 25,100 -1,854 Descending Houston Center
Sun 10:25:23 29.0192 -96.5239 30° Northeast 454 522 23,100 -2,146 Descending Houston Center
Sun 10:26:25 29.1217 -96.4542 31° Northeast 438 504 20,700 -2,475 Descending Houston Center
Sun 10:26:43 29.1628 -96.4269 30° Northeast 431 496 19,800 -2,226 Descending Houston Center
Sun 10:27:27 29.2242 -96.3844 31° Northeast 434 499 18,400 -2,114 Descending Houston Center
Sun 10:28:28 29.3256 -96.3178 30° Northeast 426 490 16,100 -2,505 Descending Houston Center
Sun 10:29:10 29.4067 -96.2614 31° Northeast 396 456 14,100 -2,710 Descending Houston Center
Sun 10:29:30 29.4375 -96.2403 31° Northeast 398 458 13,300 -2,143 Descending Houston Center
Sun 10:30:06 29.4922 -96.2039 30° Northeast 386 444 12,100 -1,355 Descending Houston Center
Sun 10:30:32 29.5286 -96.1792 31° Northeast 385 443 11,900 -97 Descending Houston Center
Sun 10:31:08 29.5650 -96.1236 53° Northeast 370 426 12,000 -197 Climbing Houston Center
Sun 10:31:33 29.5883 -96.0822 57° Northeast 381 438 11,700 -1,254 Descending Houston Center
Sun 10:32:15 29.6281 -96.0036 60° Northeast 382 440 10,600 -1,355 Descending Houston Center
Sun 10:32:35 29.6375 -95.9847 60° Northeast 376 433 10,300 -655 Descending Houston Center
Sun 10:33:10 29.6744 -95.9094 61° Northeast 361 415 10,000 -290 Descending Houston Center
Sun 10:33:37 29.6878 -95.8844 58° Northeast 363 418 10,000  Level Houston Center
Sun 10:34:17 29.7300 -95.8019 59° Northeast 349 402 10,000  Level Houston Center
Sun 10:34:38 29.7467 -95.7694 59° Northeast 350 403 10,000 -545 Level Houston Center
Sun 10:35:12 29.7689 -95.7206 62° Northeast 288 331 9,500 -1,258 Descending Houston Center
Sun 10:35:40 29.7872 -95.6889 56° Northeast 297 342 8,700 -1,935 Descending Houston Center
Sun 10:36:14 29.8100 -95.6386 62° Northeast 293 337 7,500 -1,548 Descending Houston Center
Sun 10:36:42 29.8269 -95.6069 58° Northeast 291 335 7,100 -984 Descending Houston Center
Sun 10:37:15 29.8492 -95.5619 60° Northeast 272 313 6,500 -1,065 Descending Houston Center
Sun 10:37:44 29.8653 -95.5294 60° Northeast 282 325 6,000 -492 Descending Houston Center
Sun 10:38:16 29.8903 -95.4800 60° Northeast 281 323 6,000  Level Houston Center
Sun 10:38:45 29.8958 -95.4492 78° East 278 320 6,000  Level Houston Center
Sun 10:39:11 29.8958 -95.4044 90° East 235 270 6,000  Level Houston Center
Sun 10:39:47 29.8961 -95.3731 89° East 240 276 6,000  Level Houston Center
Sun 10:40:12 29.8953 -95.3300 91° East 238 274 6,000  Level Houston Center
Sun 10:40:49 29.8964 -95.2958 88° East 239 275 6,000  Level Houston Center
Sun 10:41:13 29.8969 -95.2550 89° East 242 278 6,000  Level Houston Center
Sun 10:41:51 29.8961 -95.2189 92° East 240 276 6,000 -590 Level Houston Center
Sun 10:42:14 29.8958 -95.1756 90° East 228 262 5,400 -1,574 Descending Houston Center
Sun 10:42:52 29.8969 -95.1289 88° East 234 269 4,400 -1,548 Descending Houston Center
Sun 10:43:16 29.8953 -95.1008 94° East 236 272 3,800 -1,355 Descending Houston Center
Sun 10:43:54 29.8981 -95.0522 86° East 236 272 3,000 -1,180 Descending Houston Center
Sun 10:44:17 29.9161 -95.0333 42° Northeast 240 276 2,600 -968 Descending Houston Center
Sun 10:44:56 29.9547 -95.0350 358° North 234 269 2,000 -590 Descending Houston Center
Sun 10:45:18 29.9669 -95.0608 299° West 234 269 2,000  Level Houston Center

Login

Don't have an account? Register now (free) for customized features, flight alerts, and more!